Time;durP1;ratioP1;P1;durP2;ratioP2;P2;SDS_P1;SDS_P2;PMS_P1;PMS_P2;Temp;Humidity;BMP_temperature;BMP_pressure;BME280_temperature;BME280_humidity;BME280_pressure;Samples;Min_cycle;Max_cycle;Signal;HPM_P1;HPM_P2
2024/02/27 00:00:03;;;;;;;27.60;19.90;;;;;;;3.19;100.00;101003.95;87452;269;24268;-65
2024/02/27 00:02:09;;;;;;;28.10;20.40;;;;;;;3.17;100.00;101006.45;87225;274;23998;-69
2024/02/27 00:04:11;;;;;;;28.70;19.90;;;;;;;3.14;100.00;101005.80;86995;269;137933;-70
2024/02/27 00:06:13;;;;;;;30.10;20.00;;;;;;;3.11;100.00;101004.05;87116;269;23223;-73
2024/02/27 00:08:15;;;;;;;31.90;21.20;;;;;;;3.13;100.00;101007.45;87081;269;137396;-69
2024/02/27 00:10:17;;;;;;;32.00;20.80;;;;;;;3.14;100.00;101008.09;87070;266;25271;-69
2024/02/27 00:12:20;;;;;;;35.80;22.80;;;;;;;3.14;100.00;101006.33;86918;269;137611;-66
2024/02/27 00:14:21;;;;;;;31.30;21.50;;;;;;;3.15;100.00;101003.03;87041;269;22568;-63
2024/02/27 00:16:24;;;;;;;29.80;20.90;;;;;;;3.12;100.00;101005.11;87012;269;137798;-73
2024/02/27 00:18:27;;;;;;;30.80;21.50;;;;;;;3.05;100.00;101007.55;87103;269;22682;-68
2024/02/27 00:20:29;;;;;;;31.60;21.80;;;;;;;2.99;100.00;101011.60;86933;278;136467;-64
2024/02/27 00:22:30;;;;;;;31.30;21.90;;;;;;;2.94;100.00;101011.96;87080;266;23267;-76
2024/02/27 00:24:33;;;;;;;29.60;22.00;;;;;;;2.89;100.00;101007.42;86984;274;137014;-67
2024/02/27 00:26:35;;;;;;;32.10;21.40;;;;;;;2.87;100.00;101009.29;87149;270;22835;-71
2024/02/27 00:28:37;;;;;;;29.80;20.80;;;;;;;2.87;100.00;101003.16;86997;269;137360;-64
2024/02/27 00:30:39;;;;;;;35.40;19.80;;;;;;;2.86;100.00;100997.61;87136;267;24001;-63
2024/02/27 00:32:41;;;;;;;26.50;17.00;;;;;;;2.86;100.00;100999.03;87144;274;137104;-73
2024/02/27 00:34:43;;;;;;;29.70;16.90;;;;;;;2.85;100.00;100997.38;87012;273;22565;-72
2024/02/27 00:36:45;;;;;;;26.70;18.90;;;;;;;2.83;100.00;100995.21;86971;267;137148;-66
2024/02/27 00:38:47;;;;;;;30.80;19.00;;;;;;;2.78;100.00;100997.59;87030;269;22697;-64
2024/02/27 00:40:49;;;;;;;28.70;19.40;;;;;;;2.71;100.00;100991.79;86934;269;136791;-65
2024/02/27 00:42:51;;;;;;;30.40;17.90;;;;;;;2.63;100.00;100991.20;87096;269;22569;-70
2024/02/27 00:44:53;;;;;;;30.20;18.80;;;;;;;2.58;100.00;100987.06;87044;270;137650;-64
2024/02/27 00:46:55;;;;;;;33.10;20.90;;;;;;;2.57;100.00;100992.56;87155;267;24618;-65
2024/02/27 00:48:57;;;;;;;24.50;17.60;;;;;;;2.59;100.00;100989.82;86999;278;137273;-65
2024/02/27 00:51:00;;;;;;;23.40;15.40;;;;;;;2.60;100.00;100991.48;87133;269;25220;-68
2024/02/27 00:53:01;;;;;;;24.80;17.70;;;;;;;2.60;100.00;100990.63;86599;261;639336;-65
2024/02/27 00:55:04;;;;;;;26.30;18.40;;;;;;;2.58;100.00;100991.95;87078;277;24286;-64
2024/02/27 00:57:05;;;;;;;30.10;17.50;;;;;;;2.54;100.00;100996.63;86898;270;136561;-64
2024/02/27 00:59:07;;;;;;;23.00;15.80;;;;;;;2.48;100.00;100994.45;87140;278;23432;-65
2024/02/27 01:01:09;;;;;;;21.90;15.10;;;;;;;2.43;100.00;100982.77;86851;267;136124;-74
2024/02/27 01:03:11;;;;;;;26.20;16.90;;;;;;;2.38;100.00;100989.64;87174;271;25220;-69
2024/02/27 01:05:13;;;;;;;22.90;16.30;;;;;;;2.39;100.00;100985.02;87116;278;137021;-65
2024/02/27 01:07:15;;;;;;;27.60;16.30;;;;;;;2.39;100.00;100987.11;87129;278;22664;-75
2024/02/27 01:09:17;;;;;;;31.90;16.10;;;;;;;2.41;100.00;100987.48;86867;268;136834;-68
2024/02/27 01:11:19;;;;;;;28.30;16.80;;;;;;;2.41;100.00;100984.20;87153;266;22642;-68
2024/02/27 01:13:21;;;;;;;31.70;16.50;;;;;;;2.41;100.00;100983.15;86993;278;136940;-65
2024/02/27 01:15:23;;;;;;;26.10;16.50;;;;;;;2.41;100.00;100984.17;87015;271;25184;-70
2024/02/27 01:17:25;;;;;;;25.20;15.70;;;;;;;2.42;100.00;100982.19;87139;278;136590;-73
2024/02/27 01:19:26;;;;;;;24.10;16.70;;;;;;;2.38;100.00;100978.30;87063;268;25102;-64
2024/02/27 01:21:30;;;;;;;35.40;20.30;;;;;;;2.32;100.00;100977.88;87201;277;137398;-66
2024/02/27 01:23:32;;;;;;;27.10;18.70;;;;;;;2.27;100.00;100978.08;87260;278;25140;-65
2024/02/27 01:25:34;;;;;;;29.80;17.30;;;;;;;2.23;100.00;100972.91;87182;274;137817;-72
2024/02/27 01:27:35;;;;;;;23.60;18.30;;;;;;;2.25;100.00;100975.44;87304;271;22549;-65
2024/02/27 01:29:38;;;;;;;27.50;17.20;;;;;;;2.27;100.00;100978.59;87095;274;137113;-64
2024/02/27 01:31:39;;;;;;;31.40;17.80;;;;;;;2.26;100.00;100980.41;87184;274;26429;-65
2024/02/27 01:33:41;;;;;;;24.10;15.80;;;;;;;2.27;100.00;100978.23;87141;276;137064;-69
2024/02/27 01:35:43;;;;;;;26.00;16.20;;;;;;;2.28;100.00;100979.21;87202;273;24017;-65
2024/02/27 01:37:45;;;;;;;28.20;17.70;;;;;;;2.27;100.00;100977.02;87647;273;137008;-67
2024/02/27 01:39:48;;;;;;;26.10;17.70;;;;;;;2.25;100.00;100974.72;87205;266;27341;-68
2024/02/27 01:41:50;;;;;;;25.60;17.50;;;;;;;2.20;100.00;100973.05;87116;267;136241;-75
2024/02/27 01:43:52;;;;;;;25.20;16.50;;;;;;;2.16;100.00;100980.16;87053;271;22645;-66
2024/02/27 01:46:12;;;;;;;29.00;16.70;;;;;;;2.13;100.00;100982.24;87157;270;140138;-71
2024/02/27 01:48:14;;;;;;;24.50;15.00;;;;;;;2.21;100.00;100983.30;87136;274;137837;-64
2024/02/27 01:50:17;;;;;;;28.20;17.60;;;;;;;2.27;100.00;100983.19;87183;274;25092;-75
2024/02/27 01:52:20;;;;;;;28.60;16.70;;;;;;;2.29;100.00;100979.45;87152;278;137204;-73
2024/02/27 01:54:24;;;;;;;28.40;17.30;;;;;;;2.30;100.00;100983.42;87293;279;24010;-69
2024/02/27 01:56:27;;;;;;;21.30;14.80;;;;;;;2.30;100.00;100983.09;87181;274;136417;-65
2024/02/27 01:58:30;;;;;;;27.00;17.20;;;;;;;2.28;100.00;100985.15;87004;272;22538;-64
2024/02/27 02:00:32;;;;;;;20.80;15.50;;;;;;;2.25;100.00;100985.20;87127;278;137893;-67
2024/02/27 02:02:35;;;;;;;25.80;16.10;;;;;;;2.21;100.00;100985.67;87334;263;22551;-64
2024/02/27 02:04:37;;;;;;;26.40;15.80;;;;;;;2.19;100.00;100988.90;87198;271;136629;-70
2024/02/27 02:06:41;;;;;;;24.60;14.40;;;;;;;2.26;100.00;100988.16;87307;278;22608;-65
2024/02/27 02:08:43;;;;;;;25.60;16.00;;;;;;;2.34;100.00;100987.69;87223;267;139170;-64
2024/02/27 02:10:45;;;;;;;24.80;15.80;;;;;;;2.35;100.00;100987.95;87316;274;22567;-64
2024/02/27 02:12:48;;;;;;;26.90;16.70;;;;;;;2.30;100.00;100990.84;87231;274;136554;-63
2024/02/27 02:14:51;;;;;;;30.60;18.30;;;;;;;2.24;100.00;100991.59;87140;276;25425;-64
2024/02/27 02:16:53;;;;;;;23.70;16.40;;;;;;;2.20;100.00;100995.30;87187;270;136425;-68
2024/02/27 02:18:56;;;;;;;26.50;17.40;;;;;;;2.17;100.00;100994.96;87406;263;22562;-65
2024/02/27 02:21:01;;;;;;;28.90;18.70;;;;;;;2.14;100.00;100997.64;87119;274;136286;-64
2024/02/27 02:23:04;;;;;;;26.60;16.00;;;;;;;2.15;100.00;100992.27;87179;270;22558;-71
2024/02/27 02:25:10;;;;;;;25.80;15.70;;;;;;;2.22;100.00;100995.64;87146;269;137216;-72
2024/02/27 02:27:18;;;;;;;22.90;15.50;;;;;;;2.25;100.00;100997.65;87200;277;24009;-70
2024/02/27 02:29:19;;;;;;;24.50;16.90;;;;;;;2.27;100.00;100998.58;87198;270;136470;-65
2024/02/27 02:31:21;;;;;;;23.60;15.60;;;;;;;2.23;100.00;101001.48;87095;269;24177;-66
2024/02/27 02:33:23;;;;;;;31.20;15.40;;;;;;;2.22;100.00;101005.32;87116;271;136298;-66
2024/02/27 02:35:25;;;;;;;33.20;18.20;;;;;;;2.20;100.00;101001.92;87183;276;22571;-66
2024/02/27 02:37:27;;;;;;;27.70;17.90;;;;;;;2.19;100.00;101006.78;87177;277;136782;-69
2024/02/27 02:39:29;;;;;;;27.50;17.30;;;;;;;2.18;100.00;101007.50;87277;278;24119;-65
2024/02/27 02:41:31;;;;;;;36.20;18.60;;;;;;;2.18;100.00;101007.52;87129;270;136621;-67
2024/02/27 02:43:33;;;;;;;26.60;16.70;;;;;;;2.17;100.00;101003.20;87260;269;23960;-67
2024/02/27 02:45:37;;;;;;;21.80;14.60;;;;;;;2.23;100.00;101003.42;87208;276;137179;-65
2024/02/27 02:47:40;;;;;;;26.80;15.60;;;;;;;2.29;100.00;101002.29;87311;269;25148;-65
2024/02/27 02:49:42;;;;;;;24.50;15.50;;;;;;;2.31;100.00;101004.09;87406;269;136706;-66
2024/02/27 02:51:44;;;;;;;25.10;15.00;;;;;;;2.28;100.00;101003.42;87186;266;22951;-65
2024/02/27 02:53:46;;;;;;;24.50;15.20;;;;;;;2.23;100.00;101002.58;87140;270;138008;-64
2024/02/27 02:55:48;;;;;;;26.20;16.90;;;;;;;2.17;100.00;101010.37;87302;273;22571;-67
2024/02/27 02:57:50;;;;;;;27.90;17.20;;;;;;;2.10;100.00;101010.73;87163;278;138016;-66
2024/02/27 02:59:52;;;;;;;23.40;16.40;;;;;;;2.01;100.00;101013.88;87306;262;22664;-65
2024/02/27 03:01:55;;;;;;;26.60;17.40;;;;;;;1.94;100.00;101016.67;87244;269;136402;-68
2024/02/27 03:03:56;;;;;;;31.70;17.00;;;;;;;1.91;100.00;101018.48;87299;270;25129;-66
2024/02/27 03:05:58;;;;;;;22.60;17.40;;;;;;;1.94;100.00;101014.79;87234;273;137685;-65
2024/02/27 03:08:01;;;;;;;27.60;15.80;;;;;;;1.99;100.00;101012.79;87395;269;25255;-64
2024/02/27 03:10:03;;;;;;;29.20;17.30;;;;;;;2.03;100.00;101016.21;87253;273;22512;-66
2024/02/27 03:12:06;;;;;;;23.00;15.80;;;;;;;1.97;100.00;101016.30;87133;270;136757;-70
2024/02/27 03:14:08;;;;;;;27.50;17.10;;;;;;;1.91;100.00;101018.14;87384;269;23334;-67
2024/02/27 03:16:10;;;;;;;26.60;17.40;;;;;;;1.86;100.00;101017.15;87083;274;136472;-69
2024/02/27 03:18:12;;;;;;;27.00;16.70;;;;;;;1.78;100.00;101016.86;87221;269;22921;-65
2024/02/27 03:20:14;;;;;;;31.40;16.70;;;;;;;1.69;100.00;101017.12;87215;269;136959;-63
2024/02/27 03:22:16;;;;;;;23.70;16.20;;;;;;;1.72;100.00;101023.42;87271;264;22636;-68
2024/02/27 03:24:18;;;;;;;22.50;16.00;;;;;;;1.72;100.00;101022.13;87217;272;137468;-66
2024/02/27 03:26:21;;;;;;;23.50;15.00;;;;;;;1.69;100.00;101022.06;87441;278;25339;-64
2024/02/27 03:28:23;;;;;;;26.30;15.50;;;;;;;1.59;100.00;101023.33;87338;278;137614;-67
2024/02/27 03:30:26;;;;;;;26.50;16.40;;;;;;;1.52;100.00;101025.75;87298;269;22843;-64
2024/02/27 03:32:28;;;;;;;29.80;18.00;;;;;;;1.49;100.00;101023.54;87313;266;136386;-68
2024/02/27 03:34:33;;;;;;;23.60;16.60;;;;;;;1.46;100.00;101027.42;87051;264;25135;-65
2024/02/27 03:36:39;;;;;;;26.10;17.80;;;;;;;1.48;100.00;101023.61;87145;270;136632;-63
2024/02/27 03:38:42;;;;;;;26.50;17.60;;;;;;;1.51;100.00;101025.30;87344;278;25124;-63
2024/02/27 03:40:43;;;;;;;22.20;15.00;;;;;;;1.50;100.00;101028.35;87159;269;138694;-63
2024/02/27 03:42:45;;;;;;;26.30;16.90;;;;;;;1.45;100.00;101030.16;87260;274;22574;-63
2024/02/27 03:44:47;;;;;;;24.60;17.20;;;;;;;1.36;100.00;101038.48;87231;278;136276;-69
2024/02/27 03:46:49;;;;;;;22.90;16.40;;;;;;;1.26;100.00;101037.95;87373;274;24027;-64
2024/02/27 03:48:51;;;;;;;23.60;16.30;;;;;;;1.20;100.00;101037.01;87255;271;138044;-63
2024/02/27 03:50:53;;;;;;;23.20;13.80;;;;;;;1.21;100.00;101033.42;87345;278;25149;-69
2024/02/27 03:52:54;;;;;;;24.30;16.00;;;;;;;1.19;100.00;101033.25;87215;272;137358;-65
2024/02/27 03:54:56;;;;;;;27.40;15.60;;;;;;;1.20;100.00;101032.64;87295;273;25284;-64
2024/02/27 03:56:58;;;;;;;24.60;14.90;;;;;;;1.19;100.00;101031.46;87215;269;137649;-65
2024/02/27 03:59:00;;;;;;;24.70;16.70;;;;;;;1.15;100.00;101032.31;87231;274;22576;-64
2024/02/27 04:01:02;;;;;;;25.50;16.50;;;;;;;1.11;100.00;101034.83;87120;274;138525;-67
2024/02/27 04:03:04;;;;;;;27.20;18.20;;;;;;;1.09;100.00;101037.09;87263;266;25310;-67
2024/02/27 04:05:09;;;;;;;29.30;16.30;;;;;;;1.09;100.00;101039.73;87080;274;137553;-64
2024/02/27 04:07:11;;;;;;;25.70;16.70;;;;;;;1.09;100.00;101037.96;87290;261;25147;-61
2024/02/27 04:09:14;;;;;;;25.30;16.50;;;;;;;1.09;100.00;101037.77;87038;267;138204;-66
2024/02/27 04:11:16;;;;;;;20.40;14.50;;;;;;;1.11;100.00;101036.95;87300;273;25120;-67
2024/02/27 04:13:17;;;;;;;25.20;16.70;;;;;;;1.13;100.00;101038.70;87071;269;138116;-65
2024/02/27 04:15:19;;;;;;;27.80;17.90;;;;;;;1.13;100.00;101037.82;87117;270;24079;-64
2024/02/27 04:17:21;;;;;;;25.30;16.80;;;;;;;1.10;100.00;101042.63;87082;274;138017;-64
2024/02/27 04:19:23;;;;;;;27.40;17.30;;;;;;;1.09;100.00;101045.20;87405;269;23691;-63
2024/02/27 04:21:25;;;;;;;28.10;17.30;;;;;;;1.05;100.00;101050.13;87187;266;137909;-63
2024/02/27 04:23:28;;;;;;;31.90;18.30;;;;;;;1.03;100.00;101049.80;87355;270;22654;-66
2024/02/27 04:25:31;;;;;;;30.40;19.10;;;;;;;1.03;100.00;101053.83;87207;271;137408;-63
2024/02/27 04:27:33;;;;;;;30.90;16.30;;;;;;;1.05;100.00;101049.85;87104;271;22529;-70
2024/02/27 04:29:35;;;;;;;23.40;14.90;;;;;;;1.06;100.00;101059.69;87210;262;137112;-66
2024/02/27 04:31:37;;;;;;;32.60;18.50;;;;;;;1.04;100.00;101063.89;87393;274;22678;-63
2024/02/27 04:33:40;;;;;;;28.70;18.90;;;;;;;1.00;100.00;101057.38;87113;274;137872;-64
2024/02/27 04:35:43;;;;;;;29.20;18.90;;;;;;;0.95;100.00;101063.66;87280;269;22720;-64
2024/02/27 04:37:45;;;;;;;29.70;19.30;;;;;;;0.92;100.00;101065.92;87191;274;138465;-71
2024/02/27 04:39:46;;;;;;;31.80;21.60;;;;;;;0.94;100.00;101063.20;87233;269;22560;-68
2024/02/27 04:41:48;;;;;;;29.20;19.60;;;;;;;0.95;100.00;101065.17;86994;271;136696;-65
2024/02/27 04:43:50;;;;;;;34.60;18.50;;;;;;;0.96;100.00;101061.08;87203;275;25185;-65
2024/02/27 04:45:51;;;;;;;32.10;18.90;;;;;;;0.99;100.00;101063.05;86997;270;137183;-69
2024/02/27 04:47:53;;;;;;;24.10;16.50;;;;;;;1.00;100.00;101062.78;87266;269;22558;-73
2024/02/27 04:49:55;;;;;;;30.80;17.20;;;;;;;0.96;100.00;101063.17;86966;268;141056;-66
2024/02/27 04:51:57;;;;;;;27.50;16.50;;;;;;;0.94;100.00;101065.23;87287;267;24014;-64
2024/02/27 04:56:04;;;;;;;26.50;16.50;;;;;;;0.75;100.00;101066.63;85204;300;604336;-65
2024/02/27 04:58:06;;;;;;;30.60;17.90;;;;;;;0.72;100.00;101075.95;86906;279;22660;-63
2024/02/27 05:00:09;;;;;;;29.50;17.80;;;;;;;0.67;100.00;101074.69;86770;275;136379;-64
2024/02/27 05:02:12;;;;;;;31.00;18.30;;;;;;;0.71;100.00;101076.35;87209;271;22561;-63
2024/02/27 05:04:15;;;;;;;26.20;18.30;;;;;;;0.76;100.00;101084.92;86970;282;136850;-70
2024/02/27 05:06:17;;;;;;;26.80;18.80;;;;;;;0.83;100.00;101085.44;86895;271;22732;-64
2024/02/27 05:08:18;;;;;;;39.50;21.50;;;;;;;0.92;100.00;101086.08;86793;282;136957;-63
2024/02/27 05:10:20;;;;;;;38.10;22.10;;;;;;;0.98;100.00;101083.52;86415;274;728004;-64
2024/02/27 05:12:22;;;;;;;33.40;19.80;;;;;;;1.04;100.00;101081.23;86946;270;136712;-62
2024/02/27 05:14:25;;;;;;;34.10;20.50;;;;;;;1.04;100.00;101079.25;87078;277;22575;-64
2024/02/27 05:16:27;;;;;;;32.10;22.10;;;;;;;1.04;100.00;101084.20;87068;268;136413;-65
2024/02/27 05:18:29;;;;;;;38.80;24.10;;;;;;;1.04;100.00;101091.40;87214;273;22564;-64
2024/02/27 05:20:31;;;;;;;31.00;18.10;;;;;;;1.10;100.00;101086.73;87080;271;136400;-62
2024/02/27 05:22:34;;;;;;;39.50;21.30;;;;;;;1.18;100.00;101097.04;87007;273;22596;-65
2024/02/27 05:24:36;;;;;;;41.10;23.90;;;;;;;1.24;100.00;101097.84;87132;280;137046;-64
2024/02/27 05:26:38;;;;;;;37.90;19.40;;;;;;;1.28;100.00;101100.48;86956;272;24267;-63
2024/02/27 05:28:40;;;;;;;33.20;20.50;;;;;;;1.30;100.00;101102.48;87092;275;136449;-63
2024/02/27 05:30:43;;;;;;;28.90;19.60;;;;;;;1.25;100.00;101103.88;87134;280;22610;-66
2024/02/27 05:32:46;;;;;;;32.50;19.20;;;;;;;1.23;100.00;101106.81;87079;266;135696;-68
2024/02/27 05:34:47;;;;;;;30.30;20.30;;;;;;;1.23;100.00;101105.98;87111;273;22571;-64
2024/02/27 05:36:49;;;;;;;25.90;17.40;;;;;;;1.25;100.00;101107.38;86891;281;137148;-76
2024/02/27 05:38:52;;;;;;;31.70;18.30;;;;;;;1.30;100.00;101114.73;87116;269;24027;-64
2024/02/27 05:40:55;;;;;;;31.10;19.40;;;;;;;1.35;100.00;101115.59;86859;269;137356;-65
2024/02/27 05:42:56;;;;;;;29.80;17.40;;;;;;;1.36;100.00;101122.91;86872;275;25231;-63
2024/02/27 05:44:58;;;;;;;36.40;19.90;;;;;;;1.33;100.00;101121.88;86910;273;136807;-63
2024/02/27 05:47:00;;;;;;;26.00;18.70;;;;;;;1.38;100.00;101124.87;87021;280;24268;-64
2024/02/27 05:49:02;;;;;;;32.60;19.50;;;;;;;1.44;100.00;101123.91;86989;277;137417;-71
2024/02/27 05:51:05;;;;;;;36.30;19.60;;;;;;;1.51;100.00;101123.71;87134;280;25248;-62
2024/02/27 05:53:07;;;;;;;26.90;18.10;;;;;;;1.62;100.00;101127.85;86972;273;136290;-68
2024/02/27 05:55:09;;;;;;;28.10;17.80;;;;;;;1.70;100.00;101128.81;87061;280;25233;-66
2024/02/27 05:57:11;;;;;;;23.70;17.60;;;;;;;1.80;100.00;101130.94;86913;273;135880;-64
2024/02/27 05:59:13;;;;;;;28.60;17.00;;;;;;;1.90;100.00;101132.48;86993;280;22572;-64
2024/02/27 06:01:17;;;;;;;26.20;17.00;;;;;;;1.95;100.00;101143.15;86972;273;136918;-62
2024/02/27 06:03:19;;;;;;;26.60;15.80;;;;;;;2.02;100.00;101143.88;87237;280;25095;-65
2024/02/27 06:05:22;;;;;;;24.60;15.30;;;;;;;2.18;100.00;101139.02;87060;270;136470;-65
2024/02/27 06:07:24;;;;;;;19.30;14.80;;;;;;;2.42;100.00;101140.03;86966;281;22565;-63
2024/02/27 06:09:26;;;;;;;23.90;15.40;;;;;;;2.59;100.00;101140.90;86836;277;137102;-65
2024/02/27 06:11:28;;;;;;;22.40;15.20;;;;;;;2.67;100.00;101141.11;87051;281;22587;-64
2024/02/27 06:13:31;;;;;;;26.60;14.40;;;;;;;2.76;100.00;101139.23;86888;278;136316;-66
2024/02/27 06:15:33;;;;;;;20.90;15.70;;;;;;;2.87;100.00;101136.09;86866;275;22582;-63
2024/02/27 06:17:35;;;;;;;23.90;15.50;;;;;;;3.01;100.00;101138.83;86941;273;136154;-62
2024/02/27 06:19:43;;;;;;;27.80;15.20;;;;;;;3.23;100.00;101138.34;87086;271;24912;-73
2024/02/27 06:24:06;;;;;;;25.70;14.70;;;;;;;3.63;100.00;101148.20;87159;271;136674;-67
2024/02/27 06:26:13;;;;;;;22.80;14.40;;;;;;;3.66;100.00;101152.33;87558;271;22563;-64
2024/02/27 06:28:15;;;;;;;24.70;15.70;;;;;;;3.59;100.00;101156.23;87343;267;137385;-66
2024/02/27 06:30:18;;;;;;;28.90;16.80;;;;;;;3.35;100.00;101156.55;87127;276;25241;-67
2024/02/27 06:32:20;;;;;;;26.80;17.30;;;;;;;3.06;100.00;101156.56;87037;268;136521;-69
2024/02/27 06:34:22;;;;;;;26.40;15.60;;;;;;;2.88;100.00;101157.06;87350;271;25233;-67
2024/02/27 06:36:24;;;;;;;29.00;16.50;;;;;;;2.70;100.00;101163.04;87143;278;136026;-66
2024/02/27 06:38:26;;;;;;;21.90;15.60;;;;;;;2.55;100.00;101155.89;87136;271;22592;-70
2024/02/27 06:40:28;;;;;;;29.60;16.10;;;;;;;2.46;100.00;101153.04;87134;273;136452;-64
2024/02/27 06:42:36;;;;;;;22.70;14.90;;;;;;;2.42;100.00;101149.70;87328;271;22574;-68
2024/02/27 06:44:42;;;;;;;26.20;16.20;;;;;;;2.43;100.00;101154.50;87312;278;136875;-66
2024/02/27 06:46:45;;;;;;;31.60;17.70;;;;;;;2.45;100.00;101155.97;87388;271;22579;-66
2024/02/27 06:48:47;;;;;;;28.40;16.30;;;;;;;2.32;100.00;101155.67;87111;271;136206;-66
2024/02/27 06:50:54;;;;;;;25.70;16.20;;;;;;;2.20;100.00;101151.85;87374;267;25284;-65
2024/02/27 06:52:59;;;;;;;31.00;16.40;;;;;;;2.12;100.00;101160.31;87192;271;135980;-68
2024/02/27 06:55:03;;;;;;;28.70;18.60;;;;;;;2.08;100.00;101159.73;87310;271;22562;-67
2024/02/27 06:57:05;;;;;;;26.10;16.80;;;;;;;2.09;100.00;101156.16;87026;268;137529;-66
2024/02/27 06:59:07;;;;;;;36.00;19.00;;;;;;;2.14;100.00;101159.45;87179;271;25288;-65
2024/02/27 07:01:11;;;;;;;20.70;14.60;;;;;;;2.21;100.00;101156.19;87163;272;136765;-69
2024/02/27 07:03:13;;;;;;;23.10;15.00;;;;;;;2.25;100.00;101167.11;87346;267;22559;-68
2024/02/27 07:05:15;;;;;;;31.10;16.80;;;;;;;2.25;100.00;101161.11;87063;275;136128;-64
2024/02/27 07:07:17;;;;;;;29.00;16.20;;;;;;;2.18;100.00;101160.44;87233;270;25215;-66
2024/02/27 07:09:19;;;;;;;24.50;17.10;;;;;;;2.10;100.00;101160.97;86821;272;137590;-65
2024/02/27 07:11:21;;;;;;;41.80;18.50;;;;;;;2.07;100.00;101158.79;87215;278;24087;-64
2024/02/27 07:13:26;;;;;;;34.30;17.60;;;;;;;2.13;100.00;101159.38;87148;278;137222;-67
2024/02/27 07:15:28;;;;;;;28.60;17.60;;;;;;;2.24;100.00;101155.98;87409;278;22548;-64
2024/02/27 07:17:29;;;;;;;30.90;16.50;;;;;;;2.32;100.00;101159.20;87348;271;138257;-67
2024/02/27 07:19:31;;;;;;;22.70;13.60;;;;;;;2.42;100.00;101157.06;87210;278;22608;-63
2024/02/27 07:21:33;;;;;;;26.10;16.50;;;;;;;2.49;100.00;101170.39;86980;271;135983;-65
2024/02/27 07:23:35;;;;;;;30.60;16.50;;;;;;;2.46;100.00;101168.13;87261;267;22559;-65
2024/02/27 07:25:37;;;;;;;24.50;16.70;;;;;;;2.41;100.00;101163.23;87169;278;136011;-67
2024/02/27 07:27:39;;;;;;;29.70;17.50;;;;;;;2.35;100.00;101161.61;87299;269;23360;-66
2024/02/27 07:29:42;;;;;;;28.10;13.90;;;;;;;2.32;100.00;101162.88;87150;270;136350;-63
2024/02/27 07:31:45;;;;;;;28.50;16.70;;;;;;;2.35;100.00;101167.73;87270;270;22715;-61
2024/02/27 07:33:47;;;;;;;31.30;16.50;;;;;;;2.44;100.00;101164.63;87019;271;136882;-64
2024/02/27 07:35:50;;;;;;;30.30;16.20;;;;;;;2.56;100.00;101165.50;87070;272;24526;-62
2024/02/27 07:37:52;;;;;;;26.70;15.80;;;;;;;2.61;100.00;101163.67;86915;268;137411;-65
2024/02/27 07:39:54;;;;;;;34.10;17.30;;;;;;;2.52;100.00;101163.48;87116;272;22562;-66
2024/02/27 07:41:56;;;;;;;40.90;17.90;;;;;;;2.41;100.00;101161.13;87005;272;135988;-63
2024/02/27 07:43:58;;;;;;;33.90;18.30;;;;;;;2.35;100.00;101167.23;86987;272;25122;-66
2024/02/27 07:46:00;;;;;;;55.40;22.80;;;;;;;2.34;100.00;101173.77;87138;279;136105;-64
2024/02/27 07:48:02;;;;;;;65.00;20.30;;;;;;;2.38;100.00;101169.94;87185;271;24058;-64
2024/02/27 07:50:05;;;;;;;49.80;22.40;;;;;;;2.48;100.00;101169.38;87369;279;22581;-65
2024/02/27 07:52:07;;;;;;;38.60;18.60;;;;;;;2.62;100.00;101168.36;87003;280;137252;-64
2024/02/27 07:54:09;;;;;;;29.50;14.20;;;;;;;2.78;100.00;101170.86;87281;270;22822;-70
2024/02/27 07:56:11;;;;;;;38.80;17.20;;;;;;;2.88;100.00;101170.61;87251;273;136594;-68
2024/02/27 07:58:14;;;;;;;32.80;15.20;;;;;;;2.85;100.00;101163.59;87320;275;25146;-62
2024/02/27 08:00:18;;;;;;;25.60;14.30;;;;;;;2.77;100.00;101169.02;87012;271;136197;-64
2024/02/27 08:02:21;;;;;;;33.00;15.30;;;;;;;2.71;100.00;101161.90;87427;271;22573;-66
2024/02/27 08:04:23;;;;;;;33.30;17.80;;;;;;;2.69;100.00;101165.70;87189;278;139884;-65
2024/02/27 08:06:27;;;;;;;31.80;17.70;;;;;;;2.76;100.00;101163.63;87375;278;25079;-66
2024/02/27 08:08:29;;;;;;;40.50;18.50;;;;;;;2.87;100.00;101162.77;87218;278;136145;-64
2024/02/27 08:10:31;;;;;;;28.00;16.90;;;;;;;2.97;100.00;101161.45;87248;270;22568;-64
2024/02/27 08:12:33;;;;;;;42.10;20.80;;;;;;;3.08;100.00;101159.39;87179;274;137022;-66
2024/02/27 08:14:35;;;;;;;51.00;20.10;;;;;;;3.23;100.00;101157.89;87253;269;22558;-64
2024/02/27 08:16:37;;;;;;;58.10;20.90;;;;;;;3.37;100.00;101167.67;87196;278;136652;-64
2024/02/27 08:18:39;;;;;;;52.40;19.30;;;;;;;3.43;100.00;101170.00;87059;279;22580;-66
2024/02/27 08:20:42;;;;;;;51.00;19.80;;;;;;;3.45;100.00;101170.39;87033;278;136678;-65
2024/02/27 08:22:44;;;;;;;42.10;19.10;;;;;;;3.46;100.00;101168.17;87413;267;25277;-66
2024/02/27 08:24:46;;;;;;;40.20;17.30;;;;;;;3.51;100.00;101164.61;87255;271;138023;-66
2024/02/27 08:26:48;;;;;;;26.30;17.10;;;;;;;3.56;100.00;101168.98;87317;278;22526;-68
2024/02/27 08:28:55;;;;;;;45.80;20.20;;;;;;;3.60;100.00;101166.58;87246;271;137677;-67
2024/02/27 08:30:57;;;;;;;45.40;20.70;;;;;;;3.62;100.00;101160.63;87285;277;22651;-63
2024/02/27 08:32:59;;;;;;;27.00;16.20;;;;;;;3.67;100.00;101164.04;87225;271;137845;-65
2024/02/27 08:35:01;;;;;;;21.50;13.40;;;;;;;3.74;100.00;101165.77;87423;271;22604;-68
2024/02/27 08:37:04;;;;;;;31.60;14.90;;;;;;;3.72;100.00;101163.86;87073;268;136447;-66
2024/02/27 08:39:06;;;;;;;21.60;13.30;;;;;;;3.66;100.00;101168.88;87596;278;22555;-66
2024/02/27 08:41:08;;;;;;;23.50;13.10;;;;;;;3.62;100.00;101176.05;87107;263;136401;-65
2024/02/27 08:43:13;;;;;;;18.10;12.80;;;;;;;3.59;100.00;101168.95;87162;267;22718;-66
2024/02/27 08:45:15;;;;;;;29.40;13.00;;;;;;;3.55;100.00;101170.65;87204;271;136912;-72
2024/02/27 08:47:17;;;;;;;24.50;14.90;;;;;;;3.61;100.00;101171.91;87308;267;22565;-67
2024/02/27 08:49:20;;;;;;;36.50;18.20;;;;;;;3.69;100.00;101168.27;87152;278;137193;-64
2024/02/27 08:51:22;;;;;;;25.70;16.00;;;;;;;3.74;100.00;101166.17;87496;267;22596;-63
2024/02/27 08:53:24;;;;;;;27.90;15.80;;;;;;;3.77;100.00;101168.38;87172;275;137253;-65
2024/02/27 08:55:27;;;;;;;24.60;14.50;;;;;;;3.83;100.00;101165.61;87484;268;24940;-65
2024/02/27 08:57:29;;;;;;;21.30;14.80;;;;;;;3.92;100.00;101172.61;87197;271;136620;-65
2024/02/27 08:59:31;;;;;;;30.50;17.10;;;;;;;3.97;100.00;101174.81;87263;274;22728;-70
2024/02/27 09:01:33;;;;;;;24.20;15.80;;;;;;;4.02;100.00;101176.03;87249;271;136560;-65
2024/02/27 09:03:35;;;;;;;45.50;19.40;;;;;;;4.06;100.00;101174.81;87247;274;25195;-67
2024/02/27 09:05:37;;;;;;;32.50;17.50;;;;;;;4.10;100.00;101167.96;87136;266;138243;-66
2024/02/27 09:07:41;;;;;;;25.50;15.10;;;;;;;4.17;100.00;101168.80;87246;267;26494;-67
2024/02/27 09:09:44;;;;;;;20.50;13.70;;;;;;;4.29;100.00;101168.34;87322;271;136789;-66
2024/02/27 09:11:48;;;;;;;22.40;15.00;;;;;;;4.37;100.00;101167.35;87619;267;24993;-70
2024/02/27 09:13:50;;;;;;;39.60;18.10;;;;;;;4.41;100.00;101168.90;87213;271;136783;-63
2024/02/27 09:15:52;;;;;;;54.00;20.30;;;;;;;4.44;100.00;101168.53;87274;274;24052;-64
2024/02/27 09:17:55;;;;;;;28.80;15.70;;;;;;;4.49;100.00;101166.86;86899;266;135939;-66
2024/02/27 09:20:00;;;;;;;28.80;16.00;;;;;;;4.60;100.00;101165.42;87144;274;22768;-66
2024/02/27 09:22:03;;;;;;;35.60;17.60;;;;;;;4.74;100.00;101165.14;87188;271;22565;-69
2024/02/27 09:24:05;;;;;;;34.10;16.70;;;;;;;4.87;100.00;101160.66;87444;271;136578;-63